Terminal Aerodrome Forecast
Issued by NWS

Home | Current Version | Previous Version | Text Only | Print | Product List | Glossary On
Versions: 1 2 3 4 5 6 7 8 9 10 11 12 13
000
FTAK31 PAFA 240532
TAFABT
TAF
PABT 240532Z 2406/2506 25008KT P6SM SCT045 BKN060
     FM241900 06011G18KT P6SM BKN120
     FM242100 11011G17KT P6SM OVC050
     FM242300 13010G17KT P6SM SCT025 OVC050
     FM250300 15006KT 2SM -RA BR OVC015=

USA.gov is the U.S. government's official web portal to all federal, state and local government web resources and services.